sensor_id;sensor_type;location;lat;lon;timestamp;pressure;altitude;pressure_sealevel;temperature;humidity
72798;BME280;61084;55.816;37.036;2023-04-01T00:00:20;98069.31;;;4.11;67.69
72798;BME280;61084;55.816;37.036;2023-04-01T00:02:47;98067.66;;;4.10;67.51
72798;BME280;61084;55.816;37.036;2023-04-01T00:05:13;98065.03;;;4.10;67.49
72798;BME280;61084;55.816;37.036;2023-04-01T00:07:40;98071.13;;;4.09;67.23
72798;BME280;61084;55.816;37.036;2023-04-01T00:10:08;98065.19;;;4.07;67.10
72798;BME280;61084;55.816;37.036;2023-04-01T00:12:35;98062.66;;;4.06;67.24
72798;BME280;61084;55.816;37.036;2023-04-01T00:15:06;98072.22;;;4.05;67.37
72798;BME280;61084;55.816;37.036;2023-04-01T00:17:33;98068.84;;;4.03;67.80
72798;BME280;61084;55.816;37.036;2023-04-01T00:19:59;98060.28;;;4.01;67.08
72798;BME280;61084;55.816;37.036;2023-04-01T00:22:26;98058.53;;;4.02;67.61
72798;BME280;61084;55.816;37.036;2023-04-01T00:24:52;98064.63;;;4.01;67.27
72798;BME280;61084;55.816;37.036;2023-04-01T00:27:18;98062.03;;;4.01;67.88
72798;BME280;61084;55.816;37.036;2023-04-01T00:29:46;98059.53;;;3.99;67.64
72798;BME280;61084;55.816;37.036;2023-04-01T00:32:13;98061.28;;;3.99;67.73
72798;BME280;61084;55.816;37.036;2023-04-01T00:34:40;98065.63;;;3.98;67.53
72798;BME280;61084;55.816;37.036;2023-04-01T00:37:06;98063.97;;;3.97;67.48
72798;BME280;61084;55.816;37.036;2023-04-01T00:39:34;98063.97;;;3.97;67.86
72798;BME280;61084;55.816;37.036;2023-04-01T00:42:00;98057.06;;;3.96;67.96
72798;BME280;61084;55.816;37.036;2023-04-01T00:44:29;98067.44;;;3.96;67.54
72798;BME280;61084;55.816;37.036;2023-04-01T00:46:56;98057.16;;;3.95;67.89
72798;BME280;61084;55.816;37.036;2023-04-01T00:49:25;98067.53;;;3.95;67.98
72798;BME280;61084;55.816;37.036;2023-04-01T00:51:54;98055.53;;;3.92;67.75
72798;BME280;61084;55.816;37.036;2023-04-01T00:54:22;98054.69;;;3.92;67.91
72798;BME280;61084;55.816;37.036;2023-04-01T00:56:54;98053.88;;;3.91;67.78
72798;BME280;61084;55.816;37.036;2023-04-01T00:59:28;98053.03;;;3.91;67.72
72798;BME280;61084;55.816;37.036;2023-04-01T01:01:55;98049.59;;;3.90;67.45
72798;BME280;61084;55.816;37.036;2023-04-01T01:04:26;98058.22;;;3.91;68.04
72798;BME280;61084;55.816;37.036;2023-04-01T01:13:43;98052.41;;;3.86;67.96
72798;BME280;61084;55.816;37.036;2023-04-01T01:19:03;98054.22;;;3.83;68.15
72798;BME280;61084;55.816;37.036;2023-04-01T01:25:37;98050.00;;;3.81;68.25
72798;BME280;61084;55.816;37.036;2023-04-01T01:27:54;98049.19;;;3.80;67.90
72798;BME280;61084;55.816;37.036;2023-04-01T01:30:35;98049.19;;;3.80;68.26
72798;BME280;61084;55.816;37.036;2023-04-01T01:35:55;98057.81;;;3.81;67.90
72798;BME280;61084;55.816;37.036;2023-04-01T01:38:27;98056.06;;;3.81;68.13
72798;BME280;61084;55.816;37.036;2023-04-01T01:40:59;98060.41;;;3.81;67.80
72798;BME280;61084;55.816;37.036;2023-04-01T01:43:32;98063.00;;;3.81;67.92
72798;BME280;61084;55.816;37.036;2023-04-01T01:46:03;98065.59;;;3.81;68.28
72798;BME280;61084;55.816;37.036;2023-04-01T01:48:34;98070.78;;;3.81;67.92
72798;BME280;61084;55.816;37.036;2023-04-01T01:51:01;98063.06;;;3.79;67.93
72798;BME280;61084;55.816;37.036;2023-04-01T01:53:27;98069.13;;;3.80;68.19
72798;BME280;61084;55.816;37.036;2023-04-01T01:55:53;98061.38;;;3.78;68.30
72798;BME280;61084;55.816;37.036;2023-04-01T01:58:22;98070.00;;;3.79;67.93
72798;BME280;61084;55.816;37.036;2023-04-01T02:01:13;98069.13;;;3.80;68.13
72798;BME280;61084;55.816;37.036;2023-04-01T02:03:41;98069.13;;;3.80;68.28
72798;BME280;61084;55.816;37.036;2023-04-01T02:06:10;98069.16;;;3.78;68.60
72798;BME280;61084;55.816;37.036;2023-04-01T02:08:44;98070.84;;;3.79;68.54
72798;BME280;61084;55.816;37.036;2023-04-01T02:11:17;98066.56;;;3.78;68.08
72798;BME280;61084;55.816;37.036;2023-04-01T02:13:52;98066.56;;;3.78;68.11
72798;BME280;61084;55.816;37.036;2023-04-01T02:16:56;98070.94;;;3.78;68.38
72798;BME280;61084;55.816;37.036;2023-04-01T02:19:27;98072.78;;;3.76;68.17
72798;BME280;61084;55.816;37.036;2023-04-01T02:22:00;98073.59;;;3.76;68.16
72798;BME280;61084;55.816;37.036;2023-04-01T02:24:29;98066.72;;;3.75;68.53
72798;BME280;61084;55.816;37.036;2023-04-01T02:26:55;98072.78;;;3.76;68.28
72798;BME280;61084;55.816;37.036;2023-04-01T02:29:23;98068.47;;;3.75;68.45
72798;BME280;61084;55.816;37.036;2023-04-01T02:31:51;98068.47;;;3.75;68.30
72798;BME280;61084;55.816;37.036;2023-04-01T02:34:20;98070.22;;;3.74;68.56
72798;BME280;61084;55.816;37.036;2023-04-01T02:36:47;98072.81;;;3.74;68.60
72798;BME280;61084;55.816;37.036;2023-04-01T02:39:14;98071.06;;;3.75;68.50
72798;BME280;61084;55.816;37.036;2023-04-01T02:41:43;98073.66;;;3.75;68.34
72798;BME280;61084;55.816;37.036;2023-04-01T02:44:10;98087.50;;;3.75;68.62
72798;BME280;61084;55.816;37.036;2023-04-01T02:46:36;98090.94;;;3.76;68.38
72798;BME280;61084;55.816;37.036;2023-04-01T02:49:04;98089.16;;;3.76;68.97
72798;BME280;61084;55.816;37.036;2023-04-01T02:51:30;98090.84;;;3.77;68.73
72798;BME280;61084;55.816;37.036;2023-04-01T02:53:56;98091.84;;;3.75;68.43
72798;BME280;61084;55.816;37.036;2023-04-01T02:56:21;98086.63;;;3.75;68.75
72798;BME280;61084;55.816;37.036;2023-04-01T02:58:47;98094.50;;;3.73;68.48
72798;BME280;61084;55.816;37.036;2023-04-01T03:01:13;98093.66;;;3.73;68.88
72798;BME280;61084;55.816;37.036;2023-04-01T03:03:40;98096.16;;;3.74;68.89
72798;BME280;61084;55.816;37.036;2023-04-01T03:06:11;98096.25;;;3.73;68.36
72798;BME280;61084;55.816;37.036;2023-04-01T03:08:37;98098.84;;;3.73;68.40
72798;BME280;61084;55.816;37.036;2023-04-01T03:11:03;98097.94;;;3.74;68.57
72798;BME280;61084;55.816;37.036;2023-04-01T03:13:33;98103.13;;;3.74;68.51
72798;BME280;61084;55.816;37.036;2023-04-01T03:15:58;98103.94;;;3.74;68.43
72798;BME280;61084;55.816;37.036;2023-04-01T03:18:24;98100.53;;;3.74;68.28
72798;BME280;61084;55.816;37.036;2023-04-01T03:20:51;98101.38;;;3.74;68.57
72798;BME280;61084;55.816;37.036;2023-04-01T03:23:17;98105.72;;;3.74;68.41
72798;BME280;61084;55.816;37.036;2023-04-01T03:25:45;98103.06;;;3.75;68.90
72798;BME280;61084;55.816;37.036;2023-04-01T03:28:11;98097.16;;;3.72;68.49
72798;BME280;61084;55.816;37.036;2023-04-01T03:30:38;98103.06;;;3.75;68.52
72798;BME280;61084;55.816;37.036;2023-04-01T03:33:04;98108.16;;;3.77;68.54
72798;BME280;61084;55.816;37.036;2023-04-01T03:35:31;98105.56;;;3.77;68.61
72798;BME280;61084;55.816;37.036;2023-04-01T03:37:57;98103.91;;;3.76;68.96
72798;BME280;61084;55.816;37.036;2023-04-01T03:40:23;98107.31;;;3.76;68.66
72798;BME280;61084;55.816;37.036;2023-04-01T03:42:49;98115.94;;;3.77;68.85
72798;BME280;61084;55.816;37.036;2023-04-01T03:45:15;98112.47;;;3.78;69.17
72798;BME280;61084;55.816;37.036;2023-04-01T03:47:41;98116.72;;;3.79;68.59
72798;BME280;61084;55.816;37.036;2023-04-01T03:50:08;98117.56;;;3.79;69.12
72798;BME280;61084;55.816;37.036;2023-04-01T03:52:34;98115.81;;;3.80;68.69
72798;BME280;61084;55.816;37.036;2023-04-01T03:55:00;98115.94;;;3.77;69.38
72798;BME280;61084;55.816;37.036;2023-04-01T03:57:31;98121.84;;;3.80;69.25
72798;BME280;61084;55.816;37.036;2023-04-01T04:00:02;98127.06;;;3.80;69.15
72798;BME280;61084;55.816;37.036;2023-04-01T04:02:29;98131.31;;;3.81;69.19
72798;BME280;61084;55.816;37.036;2023-04-01T04:04:55;98135.59;;;3.83;69.12
72798;BME280;61084;55.816;37.036;2023-04-01T04:07:28;98131.22;;;3.83;68.86
72798;BME280;61084;55.816;37.036;2023-04-01T04:10:04;98140.72;;;3.84;69.15
72798;BME280;61084;55.816;37.036;2023-04-01T04:12:30;98143.31;;;3.84;69.29
72798;BME280;61084;55.816;37.036;2023-04-01T04:14:56;98151.94;;;3.85;69.09
72798;BME280;61084;55.816;37.036;2023-04-01T04:17:22;98152.72;;;3.87;69.26
72798;BME280;61084;55.816;37.036;2023-04-01T04:19:48;98155.31;;;3.87;69.34
72798;BME280;61084;55.816;37.036;2023-04-01T04:22:15;98156.97;;;3.88;69.58
72798;BME280;61084;55.816;37.036;2023-04-01T04:24:40;98156.94;;;3.89;69.34
72798;BME280;61084;55.816;37.036;2023-04-01T04:27:11;98162.94;;;3.90;69.30
72798;BME280;61084;55.816;37.036;2023-04-01T04:29:45;98165.53;;;3.90;69.09
72798;BME280;61084;55.816;37.036;2023-04-01T04:32:11;98156.84;;;3.91;69.18
72798;BME280;61084;55.816;37.036;2023-04-01T04:34:37;98157.59;;;3.93;69.40
72798;BME280;61084;55.816;37.036;2023-04-01T04:37:03;98161.81;;;3.95;69.65
72798;BME280;61084;55.816;37.036;2023-04-01T04:39:33;98164.41;;;3.95;69.38
72798;BME280;61084;55.816;37.036;2023-04-01T04:41:59;98164.34;;;3.97;69.42
72798;BME280;61084;55.816;37.036;2023-04-01T04:44:25;98161.66;;;3.98;69.35
72798;BME280;61084;55.816;37.036;2023-04-01T04:46:51;98156.41;;;4.00;69.53
72798;BME280;61084;55.816;37.036;2023-04-01T04:49:17;98161.53;;;4.01;69.75
72798;BME280;61084;55.816;37.036;2023-04-01T04:51:44;98160.56;;;4.04;69.74
72798;BME280;61084;55.816;37.036;2023-04-01T04:54:11;98167.38;;;4.06;69.85
72798;BME280;61084;55.816;37.036;2023-04-01T04:56:57;98177.66;;;4.08;69.33
72798;BME280;61084;55.816;37.036;2023-04-01T04:59:25;98173.16;;;4.11;69.35
72798;BME280;61084;55.816;37.036;2023-04-01T05:02:08;98177.38;;;4.14;69.31
72798;BME280;61084;55.816;37.036;2023-04-01T05:04:36;98172.94;;;4.16;69.27
72798;BME280;61084;55.816;37.036;2023-04-01T05:07:04;98178.09;;;4.17;69.46
72798;BME280;61084;55.816;37.036;2023-04-01T05:09:31;98186.66;;;4.19;70.04
72798;BME280;61084;55.816;37.036;2023-04-01T05:11:58;98182.22;;;4.21;69.64
72798;BME280;61084;55.816;37.036;2023-04-01T05:14:25;98182.06;;;4.24;69.71
72798;BME280;61084;55.816;37.036;2023-04-01T05:16:58;98184.53;;;4.27;69.52
72798;BME280;61084;55.816;37.036;2023-04-01T05:19:24;98193.00;;;4.31;69.91
72798;BME280;61084;55.816;37.036;2023-04-01T05:21:50;98185.97;;;4.33;70.06
72798;BME280;61084;55.816;37.036;2023-04-01T05:24:16;98192.72;;;4.37;69.90
72798;BME280;61084;55.816;37.036;2023-04-01T05:26:42;98201.22;;;4.40;69.98
72798;BME280;61084;55.816;37.036;2023-04-01T05:29:08;98198.53;;;4.42;69.98
72798;BME280;61084;55.816;37.036;2023-04-01T05:31:34;98202.66;;;4.46;69.98
72798;BME280;61084;55.816;37.036;2023-04-01T05:34:01;98205.97;;;4.49;69.52
72798;BME280;61084;55.816;37.036;2023-04-01T05:36:27;98207.50;;;4.53;69.40
72798;BME280;61084;55.816;37.036;2023-04-01T05:38:57;98210.78;;;4.57;69.76
72798;BME280;61084;55.816;37.036;2023-04-01T05:41:24;98214.22;;;4.57;69.66
72798;BME280;61084;55.816;37.036;2023-04-01T05:43:50;98213.16;;;4.62;69.94
72798;BME280;61084;55.816;37.036;2023-04-01T05:46:35;98208.69;;;4.65;69.47
72798;BME280;61084;55.816;37.036;2023-04-01T05:49:21;98209.38;;;4.69;69.82
72798;BME280;61084;55.816;37.036;2023-04-01T05:51:48;98207.44;;;4.72;70.08
72798;BME280;61084;55.816;37.036;2023-04-01T05:54:14;98207.41;;;4.74;69.38
72798;BME280;61084;55.816;37.036;2023-04-01T05:56:40;98209.81;;;4.77;69.61
72798;BME280;61084;55.816;37.036;2023-04-01T05:59:09;98215.78;;;4.79;69.56
72798;BME280;61084;55.816;37.036;2023-04-01T06:01:35;98217.25;;;4.84;69.64
72798;BME280;61084;55.816;37.036;2023-04-01T06:04:01;98213.69;;;4.87;69.83
72798;BME280;61084;55.816;37.036;2023-04-01T06:06:28;98213.47;;;4.91;69.51
72798;BME280;61084;55.816;37.036;2023-04-01T06:09:12;98226.22;;;4.96;69.43
72798;BME280;61084;55.816;37.036;2023-04-01T06:21:14;98244.50;;;5.11;69.35
72798;BME280;61084;55.816;37.036;2023-04-01T06:27:09;98233.72;;;5.19;69.84
72798;BME280;61084;55.816;37.036;2023-04-01T06:29:49;98235.16;;;5.24;69.33
72798;BME280;61084;55.816;37.036;2023-04-01T06:47:02;98247.09;;;5.46;69.64
72798;BME280;61084;55.816;37.036;2023-04-01T06:50:04;98238.28;;;5.48;69.45
72798;BME280;61084;55.816;37.036;2023-04-01T06:53:06;98245.78;;;5.54;69.33
72798;BME280;61084;55.816;37.036;2023-04-01T06:55:57;98242.88;;;5.60;69.10
72798;BME280;61084;55.816;37.036;2023-04-01T06:59:21;98241.63;;;5.67;69.11
72798;BME280;61084;55.816;37.036;2023-04-01T07:01:53;98248.28;;;5.73;69.03
72798;BME280;61084;55.816;37.036;2023-04-01T07:04:28;98245.34;;;5.79;68.38
72798;BME280;61084;55.816;37.036;2023-04-01T07:07:14;98253.81;;;5.84;68.37
72798;BME280;61084;55.816;37.036;2023-04-01T07:09:53;98245.75;;;5.88;68.26
72798;BME280;61084;55.816;37.036;2023-04-01T07:15:26;98247.69;;;6.00;68.53
72798;BME280;61084;55.816;37.036;2023-04-01T07:17:58;98252.66;;;6.05;68.02
72798;BME280;61084;55.816;37.036;2023-04-01T07:20:32;98251.50;;;6.11;67.92
72798;BME280;61084;55.816;37.036;2023-04-01T07:23:06;98262.84;;;6.09;67.56
72798;BME280;61084;55.816;37.036;2023-04-01T07:25:58;98266.97;;;6.14;68.20
72798;BME280;61084;55.816;37.036;2023-04-01T07:28:31;98262.25;;;6.20;68.20
72798;BME280;61084;55.816;37.036;2023-04-01T07:33:58;98260.00;;;6.30;68.25
72798;BME280;61084;55.816;37.036;2023-04-01T07:47:18;98267.84;;;6.61;67.27
72798;BME280;61084;55.816;37.036;2023-04-01T07:50:04;98276.94;;;6.69;67.05
72798;BME280;61084;55.816;37.036;2023-04-01T08:00:42;98279.69;;;6.98;66.83
72798;BME280;61084;55.816;37.036;2023-04-01T08:06:17;98282.06;;;7.16;66.78
72798;BME280;61084;55.816;37.036;2023-04-01T08:09:01;98272.19;;;7.37;66.27
72798;BME280;61084;55.816;37.036;2023-04-01T08:18:41;98272.94;;;7.83;63.66
72798;BME280;61084;55.816;37.036;2023-04-01T08:21:21;98278.63;;;7.89;63.47
72798;BME280;61084;55.816;37.036;2023-04-01T08:23:52;98282.72;;;7.93;63.97
72798;BME280;61084;55.816;37.036;2023-04-01T08:26:28;98277.69;;;8.04;63.93
72798;BME280;61084;55.816;37.036;2023-04-01T08:29:18;98276.94;;;8.16;63.68
72798;BME280;61084;55.816;37.036;2023-04-01T08:31:51;98272.66;;;8.29;63.90
72798;BME280;61084;55.816;37.036;2023-04-01T08:34:24;98276.59;;;8.37;62.85
72798;BME280;61084;55.816;37.036;2023-04-01T08:36:59;98279.84;;;8.54;63.15
72798;BME280;61084;55.816;37.036;2023-04-01T08:39:38;98278.88;;;8.69;63.29
72798;BME280;61084;55.816;37.036;2023-04-01T08:42:14;98275.16;;;8.86;63.06
72798;BME280;61084;55.816;37.036;2023-04-01T08:59:17;98276.94;;;9.51;59.54
72798;BME280;61084;55.816;37.036;2023-04-01T09:16:38;98289.50;;;10.11;56.17
72798;BME280;61084;55.816;37.036;2023-04-01T09:19:50;98296.09;;;10.16;56.92
72798;BME280;61084;55.816;37.036;2023-04-01T09:25:21;98292.84;;;10.38;56.73
72798;BME280;61084;55.816;37.036;2023-04-01T09:30:34;98299.31;;;10.57;56.13
72798;BME280;61084;55.816;37.036;2023-04-01T09:33:17;98303.38;;;10.61;57.35
72798;BME280;61084;55.816;37.036;2023-04-01T09:38:49;98304.72;;;10.80;57.35
72798;BME280;61084;55.816;37.036;2023-04-01T09:41:36;98308.75;;;10.96;56.87
72798;BME280;61084;55.816;37.036;2023-04-01T10:01:50;98318.94;;;11.72;55.92
72798;BME280;61084;55.816;37.036;2023-04-01T10:19:29;98315.84;;;12.24;53.04
72798;BME280;61084;55.816;37.036;2023-04-01T10:25:02;98322.41;;;12.51;53.75
72798;BME280;61084;55.816;37.036;2023-04-01T10:36:56;98319.91;;;12.83;52.83
72798;BME280;61084;55.816;37.036;2023-04-01T10:43:24;98330.31;;;12.96;52.34
72798;BME280;61084;55.816;37.036;2023-04-01T10:46:00;98335.31;;;12.99;50.75
72798;BME280;61084;55.816;37.036;2023-04-01T10:55:32;98337.16;;;13.09;50.19
72798;BME280;61084;55.816;37.036;2023-04-01T11:13:30;98334.88;;;13.05;48.11
72798;BME280;61084;55.816;37.036;2023-04-01T11:31:10;98344.66;;;13.03;47.08
72798;BME280;61084;55.816;37.036;2023-04-01T11:36:48;98351.13;;;12.99;47.53
72798;BME280;61084;55.816;37.036;2023-04-01T11:46:10;98349.34;;;12.88;46.77
72798;BME280;61084;55.816;37.036;2023-04-01T11:51:42;98347.53;;;12.88;48.15
72798;BME280;61084;55.816;37.036;2023-04-01T12:02:47;98355.31;;;12.79;47.89
72798;BME280;61084;55.816;37.036;2023-04-01T12:11:00;98359.06;;;12.76;49.26
72798;BME280;61084;55.816;37.036;2023-04-01T12:13:42;98362.63;;;12.75;49.56
72798;BME280;61084;55.816;37.036;2023-04-01T12:18:59;98366.81;;;12.56;50.16
72798;BME280;61084;55.816;37.036;2023-04-01T12:24:46;98359.41;;;12.50;49.88
72798;BME280;61084;55.816;37.036;2023-04-01T12:33:48;98377.81;;;12.39;49.99
72798;BME280;61084;55.816;37.036;2023-04-01T12:44:56;98388.75;;;12.10;50.25
72798;BME280;61084;55.816;37.036;2023-04-01T12:56:02;98386.44;;;11.95;50.60
72798;BME280;61084;55.816;37.036;2023-04-01T13:01:50;98393.09;;;11.88;50.71
72798;BME280;61084;55.816;37.036;2023-04-01T13:07:21;98403.13;;;11.83;50.79
72798;BME280;61084;55.816;37.036;2023-04-01T13:10:01;98404.28;;;11.79;50.74
72798;BME280;61084;55.816;37.036;2023-04-01T13:26:13;98417.31;;;11.57;51.20
72798;BME280;61084;55.816;37.036;2023-04-01T13:28:47;98425.41;;;11.54;50.90
72798;BME280;61084;55.816;37.036;2023-04-01T13:31:26;98430.25;;;11.47;50.66
72798;BME280;61084;55.816;37.036;2023-04-01T13:45:12;98430.84;;;11.27;51.00
72798;BME280;61084;55.816;37.036;2023-04-01T13:53:24;98443.81;;;11.17;51.38
72798;BME280;61084;55.816;37.036;2023-04-01T13:59:25;98458.41;;;11.09;51.20
72798;BME280;61084;55.816;37.036;2023-04-01T14:15:26;98468.44;;;10.79;51.17
72798;BME280;61084;55.816;37.036;2023-04-01T14:18:01;98465.16;;;10.75;51.32
72798;BME280;61084;55.816;37.036;2023-04-01T14:32:06;98485.59;;;10.57;51.95
72798;BME280;61084;55.816;37.036;2023-04-01T14:40:19;98496.59;;;10.37;52.59
72798;BME280;61084;55.816;37.036;2023-04-01T14:54:17;98515.63;;;10.14;53.92
72798;BME280;61084;55.816;37.036;2023-04-01T14:57:12;98515.28;;;10.06;54.35
72798;BME280;61084;55.816;37.036;2023-04-01T15:00:25;98514.94;;;9.98;54.77
72798;BME280;61084;55.816;37.036;2023-04-01T15:05:32;98518.31;;;9.86;55.42
72798;BME280;61084;55.816;37.036;2023-04-01T15:08:22;98524.72;;;9.82;55.99
72798;BME280;61084;55.816;37.036;2023-04-01T15:16:36;98535.88;;;9.71;56.74
72798;BME280;61084;55.816;37.036;2023-04-01T15:19:16;98533.44;;;9.68;57.08
72798;BME280;61084;55.816;37.036;2023-04-01T15:22:41;98533.53;;;9.67;57.54
72798;BME280;61084;55.816;37.036;2023-04-01T15:28:10;98536.44;;;9.62;58.04
72798;BME280;61084;55.816;37.036;2023-04-01T15:31:09;98540.94;;;9.60;58.33
72798;BME280;61084;55.816;37.036;2023-04-01T15:36:13;98553.41;;;9.57;58.93
72798;BME280;61084;55.816;37.036;2023-04-01T15:39:24;98551.81;;;9.54;59.27
72798;BME280;61084;55.816;37.036;2023-04-01T15:47:34;98561.91;;;9.46;59.70
72798;BME280;61084;55.816;37.036;2023-04-01T15:50:51;98570.03;;;9.42;59.99
72798;BME280;61084;55.816;37.036;2023-04-01T15:53:30;98578.28;;;9.36;60.06
72798;BME280;61084;55.816;37.036;2023-04-01T15:56:53;98582.03;;;9.32;60.55
72798;BME280;61084;55.816;37.036;2023-04-01T16:01:59;98584.94;;;9.27;60.66
72798;BME280;61084;55.816;37.036;2023-04-01T16:07:22;98591.47;;;9.20;60.60
72798;BME280;61084;55.816;37.036;2023-04-01T16:12:34;98597.06;;;9.14;61.01
72798;BME280;61084;55.816;37.036;2023-04-01T16:20:19;98603.69;;;9.05;61.21
72798;BME280;61084;55.816;37.036;2023-04-01T16:25:41;98605.75;;;9.00;61.40
72798;BME280;61084;55.816;37.036;2023-04-01T16:30:48;98612.19;;;8.95;61.83
72798;BME280;61084;55.816;37.036;2023-04-01T16:36:22;98612.47;;;8.90;62.05
72798;BME280;61084;55.816;37.036;2023-04-01T16:41:27;98610.22;;;8.84;61.72
72798;BME280;61084;55.816;37.036;2023-04-01T16:44:10;98620.69;;;8.84;62.59
72798;BME280;61084;55.816;37.036;2023-04-01T16:46:53;98616.63;;;8.79;62.44
72798;BME280;61084;55.816;37.036;2023-04-01T16:54:43;98622.97;;;8.75;62.59
72798;BME280;61084;55.816;37.036;2023-04-01T16:59:47;98628.47;;;8.70;62.38
72798;BME280;61084;55.816;37.036;2023-04-01T17:02:16;98618.84;;;8.71;62.61
72798;BME280;61084;55.816;37.036;2023-04-01T17:07:47;98627.81;;;8.67;62.93
72798;BME280;61084;55.816;37.036;2023-04-01T17:19:14;98643.13;;;8.59;63.12
72798;BME280;61084;55.816;37.036;2023-04-01T17:22:07;98644.03;;;8.58;63.35
72798;BME280;61084;55.816;37.036;2023-04-01T17:30:26;98636.69;;;8.49;63.72
72798;BME280;61084;55.816;37.036;2023-04-01T17:33:18;98642.94;;;8.46;63.40
72798;BME280;61084;55.816;37.036;2023-04-01T17:46:58;98650.47;;;8.37;63.81
72798;BME280;61084;55.816;37.036;2023-04-01T17:49:33;98650.38;;;8.38;63.72
72798;BME280;61084;55.816;37.036;2023-04-01T17:58:13;98655.97;;;8.32;63.96
72798;BME280;61084;55.816;37.036;2023-04-01T18:09:05;98675.59;;;8.23;64.46
72798;BME280;61084;55.816;37.036;2023-04-01T18:25:45;98686.38;;;8.17;64.74
72798;BME280;61084;55.816;37.036;2023-04-01T18:31:06;98704.06;;;8.12;65.06
72798;BME280;61084;55.816;37.036;2023-04-01T18:39:03;98705.09;;;8.10;65.32
72798;BME280;61084;55.816;37.036;2023-04-01T18:42:08;98698.94;;;8.11;65.13
72798;BME280;61084;55.816;37.036;2023-04-01T18:44:59;98703.31;;;8.10;65.38
72798;BME280;61084;55.816;37.036;2023-04-01T18:47:44;98703.41;;;8.09;65.30
72798;BME280;61084;55.816;37.036;2023-04-01T18:50:26;98707.94;;;8.05;65.34
72798;BME280;61084;55.816;37.036;2023-04-01T18:55:40;98706.28;;;8.04;65.00
72798;BME280;61084;55.816;37.036;2023-04-01T19:06:27;98722.25;;;7.98;65.38
72798;BME280;61084;55.816;37.036;2023-04-01T19:08:54;98729.28;;;7.98;65.83
72798;BME280;61084;55.816;37.036;2023-04-01T19:11:26;98734.41;;;7.99;65.99
72798;BME280;61084;55.816;37.036;2023-04-01T19:46:18;98738.25;;;7.92;66.56
72798;BME280;61084;55.816;37.036;2023-04-01T19:51:59;98741.63;;;7.94;66.30
72798;BME280;61084;55.816;37.036;2023-04-01T19:57:30;98741.81;;;7.91;66.55
72798;BME280;61084;55.816;37.036;2023-04-01T20:03:28;98741.81;;;7.91;66.48
72798;BME280;61084;55.816;37.036;2023-04-01T20:06:06;98740.88;;;7.92;66.64
72798;BME280;61084;55.816;37.036;2023-04-01T20:14:18;98747.03;;;7.91;66.84
72798;BME280;61084;55.816;37.036;2023-04-01T20:19:39;98746.19;;;7.91;66.76
72798;BME280;61084;55.816;37.036;2023-04-01T20:24:58;98737.41;;;7.92;66.67
72798;BME280;61084;55.816;37.036;2023-04-01T20:27:31;98740.03;;;7.92;66.74
72798;BME280;61084;55.816;37.036;2023-04-01T20:41:05;98749.66;;;7.91;66.76
72798;BME280;61084;55.816;37.036;2023-04-01T21:06:10;98761.72;;;7.94;66.87
72798;BME280;61084;55.816;37.036;2023-04-01T21:16:47;98764.41;;;7.92;67.00
72798;BME280;61084;55.816;37.036;2023-04-01T21:53:07;98762.88;;;7.88;67.31
72798;BME280;61084;55.816;37.036;2023-04-01T22:06:56;98779.41;;;7.89;67.85
72798;BME280;61084;55.816;37.036;2023-04-01T22:09:31;98779.31;;;7.90;67.38
72798;BME280;61084;55.816;37.036;2023-04-01T22:12:05;98781.06;;;7.90;67.75
72798;BME280;61084;55.816;37.036;2023-04-01T22:14:53;98782.88;;;7.89;67.90
72798;BME280;61084;55.816;37.036;2023-04-01T22:23:08;98787.25;;;7.89;67.37
72798;BME280;61084;55.816;37.036;2023-04-01T22:30:39;98790.69;;;7.89;67.82
72798;BME280;61084;55.816;37.036;2023-04-01T22:33:16;98778.47;;;7.90;67.75
72798;BME280;61084;55.816;37.036;2023-04-01T22:43:44;98791.47;;;7.91;67.80
72798;BME280;61084;55.816;37.036;2023-04-01T22:47:12;98796.59;;;7.93;68.08
72798;BME280;61084;55.816;37.036;2023-04-01T22:49:26;98797.44;;;7.93;67.75
72798;BME280;61084;55.816;37.036;2023-04-01T22:52:05;98794.91;;;7.92;68.18
72798;BME280;61084;55.816;37.036;2023-04-01T22:54:39;98800.97;;;7.92;67.74
72798;BME280;61084;55.816;37.036;2023-04-01T22:57:31;98794.91;;;7.92;68.22
72798;BME280;61084;55.816;37.036;2023-04-01T23:02:39;98784.44;;;7.92;68.13
72798;BME280;61084;55.816;37.036;2023-04-01T23:05:12;98791.38;;;7.93;67.89
72798;BME280;61084;55.816;37.036;2023-04-01T23:07:57;98783.53;;;7.93;67.99
72798;BME280;61084;55.816;37.036;2023-04-01T23:10:28;98795.69;;;7.94;68.00
72798;BME280;61084;55.816;37.036;2023-04-01T23:12:58;98794.75;;;7.95;68.13
72798;BME280;61084;55.816;37.036;2023-04-01T23:15:26;98793.84;;;7.96;68.01
72798;BME280;61084;55.816;37.036;2023-04-01T23:20:27;98796.50;;;7.94;68.02
72798;BME280;61084;55.816;37.036;2023-04-01T23:23:20;98799.22;;;7.93;68.18
72798;BME280;61084;55.816;37.036;2023-04-01T23:26:20;98799.22;;;7.93;68.33
72798;BME280;61084;55.816;37.036;2023-04-01T23:28:54;98798.34;;;7.92;68.79
72798;BME280;61084;55.816;37.036;2023-04-01T23:31:27;98810.53;;;7.93;68.64
72798;BME280;61084;55.816;37.036;2023-04-01T23:33:58;98804.44;;;7.93;68.70
72798;BME280;61084;55.816;37.036;2023-04-01T23:36:26;98793.13;;;7.92;68.78
72798;BME280;61084;55.816;37.036;2023-04-01T23:38:53;98796.59;;;7.93;68.59
72798;BME280;61084;55.816;37.036;2023-04-01T23:41:26;98797.44;;;7.93;68.50
72798;BME280;61084;55.816;37.036;2023-04-01T23:44:14;98799.97;;;7.95;68.54
72798;BME280;61084;55.816;37.036;2023-04-01T23:46:42;98798.34;;;7.92;68.58
72798;BME280;61084;55.816;37.036;2023-04-01T23:49:17;98802.69;;;7.93;69.05
72798;BME280;61084;55.816;37.036;2023-04-01T23:52:13;98796.59;;;7.93;68.95
72798;BME280;61084;55.816;37.036;2023-04-01T23:57:14;98796.59;;;7.93;69.33
72798;BME280;61084;55.816;37.036;2023-04-01T23:59:41;98794.06;;;7.91;69.02
